createdAt,value
2022-11-14T00:02:25.651Z,3.68
2022-11-14T00:05:10.991Z,3.59
2022-11-14T00:07:55.858Z,3.59
2022-11-14T00:10:41.108Z,3.61
2022-11-14T00:13:26.482Z,3.70
2022-11-14T00:16:11.342Z,3.72
2022-11-14T00:18:56.162Z,3.80
2022-11-14T00:21:41.157Z,3.85
2022-11-14T00:24:26.681Z,3.85
2022-11-14T00:27:11.779Z,3.85
2022-11-14T00:29:56.724Z,3.91
2022-11-14T00:32:41.678Z,3.98
2022-11-14T00:35:26.891Z,4.04
2022-11-14T00:38:11.743Z,4.09
2022-11-14T00:40:56.609Z,4.23
2022-11-14T00:43:41.993Z,4.23
2022-11-14T00:46:26.792Z,4.24
2022-11-14T00:49:11.726Z,4.28
2022-11-14T00:51:56.605Z,4.24
2022-11-14T00:54:42.099Z,4.14
2022-11-14T00:57:27.364Z,4.25
2022-11-14T01:00:13.802Z,4.15
2022-11-14T01:02:59.266Z,4.09
2022-11-14T01:05:46.007Z,4.10
2022-11-14T01:08:31.838Z,4.02
2022-11-14T01:11:20.463Z,3.97
2022-11-14T01:14:09.213Z,3.99
2022-11-14T01:16:54.552Z,4.00
2022-11-14T01:19:40.619Z,3.94
2022-11-14T01:22:25.665Z,3.87
2022-11-14T01:25:11.015Z,3.94
2022-11-14T01:27:56.420Z,3.90
2022-11-14T01:30:42.063Z,3.90
2022-11-14T01:33:27.384Z,3.90
2022-11-14T01:36:12.634Z,3.94
2022-11-14T01:38:57.724Z,4.05
2022-11-14T01:41:43.112Z,3.95
2022-11-14T01:44:49.052Z,3.95
2022-11-14T01:47:35.354Z,3.85
2022-11-14T01:50:20.299Z,3.79
2022-11-14T01:53:05.795Z,3.79
2022-11-14T01:55:53.239Z,3.71
2022-11-14T01:58:43.235Z,3.71
2022-11-14T02:01:32.488Z,3.67
2022-11-14T02:04:28.336Z,3.45
2022-11-14T02:07:14.813Z,3.53
2022-11-14T02:10:06.651Z,3.62
2022-11-14T02:12:52.902Z,3.59
2022-11-14T02:15:38.793Z,3.55
2022-11-14T02:18:23.697Z,3.63
2022-11-14T02:21:08.725Z,3.54
2022-11-14T02:23:54.142Z,3.55
2022-11-14T02:26:41.441Z,3.61
2022-11-14T02:29:26.702Z,3.57
2022-11-14T02:32:12.021Z,3.47
2022-11-14T02:34:57.029Z,3.46
2022-11-14T02:37:42.116Z,3.52
2022-11-14T02:40:27.183Z,3.50
2022-11-14T02:43:12.641Z,3.59
2022-11-14T02:46:02.812Z,3.51
2022-11-14T02:48:50.284Z,3.48
2022-11-14T02:51:35.890Z,3.46
2022-11-14T02:54:21.341Z,3.51
2022-11-14T02:57:06.408Z,3.66
2022-11-14T02:59:51.286Z,3.55
2022-11-14T03:02:36.804Z,3.51
2022-11-14T03:05:21.705Z,3.54
2022-11-14T03:08:06.724Z,3.43
2022-11-14T03:10:51.986Z,3.30
2022-11-14T03:13:37.125Z,3.36
2022-11-14T03:16:22.314Z,3.46
2022-11-14T03:19:07.133Z,3.58
2022-11-14T03:21:52.167Z,3.53
2022-11-14T03:24:38.017Z,3.62
2022-11-14T03:27:23.056Z,3.54
2022-11-14T03:30:08.698Z,3.68
2022-11-14T03:32:56.095Z,3.75
2022-11-14T03:35:44.175Z,3.85
2022-11-14T03:38:29.481Z,3.84
2022-11-14T03:41:14.935Z,3.79
2022-11-14T03:43:59.984Z,3.86
2022-11-14T03:46:45.619Z,3.94
2022-11-14T03:49:30.827Z,3.95
2022-11-14T03:52:15.682Z,3.73
2022-11-14T03:55:01.548Z,3.91
2022-11-14T03:57:46.461Z,3.96
2022-11-14T04:00:31.943Z,3.94
2022-11-14T04:03:17.410Z,3.94
2022-11-14T04:06:02.937Z,3.95
2022-11-14T04:08:48.124Z,4.05
2022-11-14T04:11:33.086Z,4.01
2022-11-14T04:14:18.623Z,4.04
2022-11-14T04:17:03.949Z,4.07
2022-11-14T04:19:49.172Z,4.15
2022-11-14T04:22:34.183Z,4.07
2022-11-14T04:25:19.168Z,4.10
2022-11-14T04:28:04.383Z,4.00
2022-11-14T04:30:49.485Z,4.01
2022-11-14T04:33:34.273Z,4.07
2022-11-14T04:36:19.212Z,4.01
2022-11-14T04:39:04.714Z,4.03
2022-11-14T04:41:49.989Z,4.09
2022-11-14T04:44:34.941Z,4.10
2022-11-14T04:47:20.610Z,4.14
2022-11-14T04:50:06.292Z,4.12
2022-11-14T04:52:52.610Z,4.16
2022-11-14T04:55:37.748Z,4.19
2022-11-14T04:58:22.661Z,4.28
2022-11-14T05:01:13.297Z,4.30
2022-11-14T05:03:58.512Z,4.35
2022-11-14T05:06:44.127Z,4.43
2022-11-14T05:09:29.222Z,4.47
2022-11-14T05:12:14.199Z,4.53
2022-11-14T05:14:59.159Z,4.48
2022-11-14T05:17:44.394Z,4.50
2022-11-14T05:20:29.572Z,4.56
2022-11-14T05:23:22.986Z,4.58
2022-11-14T05:26:10.902Z,4.68
2022-11-14T05:28:55.725Z,4.66
2022-11-14T05:31:40.625Z,4.68
2022-11-14T05:34:26.115Z,4.69
2022-11-14T05:37:11.247Z,4.66
2022-11-14T05:39:56.171Z,4.62
2022-11-14T05:42:41.378Z,4.58
2022-11-14T05:45:26.271Z,4.56
2022-11-14T05:48:11.795Z,4.54
2022-11-14T05:50:59.291Z,4.55
2022-11-14T05:53:44.310Z,4.55
2022-11-14T05:56:29.338Z,4.56
2022-11-14T05:59:14.339Z,4.54
2022-11-14T06:01:59.719Z,4.51
2022-11-14T06:04:45.015Z,4.39
2022-11-14T06:07:30.191Z,4.38
2022-11-14T06:10:15.472Z,4.31
2022-11-14T06:13:00.623Z,4.30
2022-11-14T06:15:46.047Z,4.26
2022-11-14T06:18:32.235Z,4.25
2022-11-14T06:21:22.631Z,4.22
2022-11-14T06:24:08.096Z,4.20
2022-11-14T06:26:53.036Z,4.16
2022-11-14T06:29:38.661Z,4.16
2022-11-14T06:32:23.954Z,4.16
2022-11-14T06:35:09.109Z,4.11
2022-11-14T06:37:54.320Z,4.08
2022-11-14T06:40:39.512Z,4.06
2022-11-14T06:43:24.884Z,4.00
2022-11-14T06:46:13.065Z,3.99
2022-11-14T06:48:58.315Z,3.98
2022-11-14T06:51:43.735Z,3.98
2022-11-14T06:54:28.870Z,3.95
2022-11-14T06:57:13.937Z,3.98
2022-11-14T06:59:58.997Z,4.10
2022-11-14T07:02:47.996Z,4.01
2022-11-14T07:05:33.108Z,4.08
2022-11-14T07:08:21.082Z,4.16
2022-11-14T07:11:09.852Z,4.18
2022-11-14T07:13:59.722Z,4.21
2022-11-14T07:16:44.806Z,4.19
2022-11-14T07:19:29.718Z,4.21
2022-11-14T07:22:15.118Z,4.21
2022-11-14T07:25:00.434Z,4.22
2022-11-14T07:27:45.827Z,4.24
2022-11-14T07:30:31.288Z,4.31
2022-11-14T07:33:16.580Z,4.35
2022-11-14T07:36:01.997Z,4.41
2022-11-14T07:38:47.418Z,4.43
2022-11-14T07:41:32.290Z,4.51
2022-11-14T07:48:22.402Z,4.49
2022-11-14T07:51:10.632Z,4.56
2022-11-14T07:53:55.760Z,4.63
2022-11-14T07:56:41.134Z,4.63
2022-11-14T07:59:26.147Z,4.75
2022-11-14T08:02:15.382Z,4.85
2022-11-14T08:05:00.382Z,4.94
2022-11-14T08:07:45.369Z,5.05
2022-11-14T08:10:33.767Z,5.13
2022-11-14T08:13:32.313Z,5.21
2022-11-14T08:16:18.683Z,5.23
2022-11-14T08:19:03.737Z,5.34
2022-11-14T08:21:48.932Z,5.46
2022-11-14T08:24:33.778Z,5.50
2022-11-14T08:27:19.269Z,5.52
2022-11-14T08:30:04.800Z,5.59
2022-11-14T08:32:50.236Z,5.67
2022-11-14T08:35:35.489Z,5.71
2022-11-14T08:38:21.113Z,5.78
2022-11-14T08:41:06.515Z,5.89
2022-11-14T08:43:51.662Z,5.98
2022-11-14T08:46:36.723Z,6.06
2022-11-14T08:49:22.288Z,6.07
2022-11-14T08:52:09.311Z,6.11
2022-11-14T08:54:57.553Z,6.09
2022-11-14T08:57:48.079Z,6.21
2022-11-14T09:00:34.676Z,6.33
2022-11-14T09:03:20.138Z,6.42
2022-11-14T09:06:05.934Z,6.51
2022-11-14T09:08:51.247Z,6.50
2022-11-14T09:11:36.271Z,6.57
2022-11-14T09:14:21.370Z,6.59
2022-11-14T09:17:07.993Z,6.68
2022-11-14T09:20:01.735Z,6.74
2022-11-14T09:22:46.966Z,6.81
2022-11-14T09:25:32.479Z,6.89
2022-11-14T09:28:17.588Z,6.90
2022-11-14T09:31:11.748Z,6.97
2022-11-14T09:33:57.338Z,7.02
2022-11-14T09:36:42.842Z,7.03
2022-11-14T09:39:28.400Z,7.05
2022-11-14T09:42:32.727Z,7.19
2022-11-14T09:45:20.098Z,7.21
2022-11-14T09:48:12.546Z,7.38
2022-11-14T09:51:11.067Z,7.43
2022-11-14T09:54:18.379Z,7.56
2022-11-14T09:57:03.987Z,7.76
2022-11-14T09:59:49.618Z,7.77
2022-11-14T10:03:03.126Z,7.92
2022-11-14T10:06:16.665Z,8.06
2022-11-14T10:09:15.608Z,8.14
2022-11-14T10:12:07.060Z,8.18
2022-11-14T10:15:10.895Z,8.23
2022-11-14T10:18:11.684Z,8.39
2022-11-14T10:21:06.198Z,8.41
2022-11-14T10:24:08.734Z,8.39
2022-11-14T10:27:03.832Z,8.50
2022-11-14T10:29:59.323Z,8.55
2022-11-14T10:32:53.661Z,8.73
2022-11-14T10:35:53.061Z,8.81
2022-11-14T10:38:43.626Z,8.57
2022-11-14T10:44:42.797Z,8.74
2022-11-14T10:47:40.109Z,8.92
2022-11-14T10:50:33.127Z,9.35
2022-11-14T10:53:32.038Z,10.05
2022-11-14T10:56:18.435Z,10.26
2022-11-14T10:59:04.090Z,10.45
2022-11-14T11:01:52.342Z,10.65
2022-11-14T11:04:39.972Z,10.49
2022-11-14T11:07:28.687Z,10.28
2022-11-14T11:10:34.277Z,10.25
2022-11-14T11:13:52.841Z,9.93
2022-11-14T11:16:37.982Z,9.79
2022-11-14T11:19:26.185Z,9.68
2022-11-14T11:22:36.786Z,9.81
2022-11-14T11:25:28.953Z,9.71
2022-11-14T11:28:19.814Z,9.96
2022-11-14T11:31:07.852Z,10.10
2022-11-14T11:34:15.341Z,10.40
2022-11-14T11:37:23.373Z,11.09
2022-11-14T11:40:20.152Z,11.10
2022-11-14T11:46:35.049Z,11.08
2022-11-14T11:49:53.841Z,11.45
2022-11-14T11:52:58.372Z,11.20
2022-11-14T11:55:50.265Z,11.16
2022-11-14T11:58:46.332Z,11.44
2022-11-14T12:01:31.353Z,11.51
2022-11-14T12:04:16.778Z,11.42
2022-11-14T12:07:14.879Z,11.42
2022-11-14T12:14:02.348Z,11.39
2022-11-14T12:17:05.849Z,11.39
2022-11-14T12:20:23.390Z,11.41
2022-11-14T12:23:50.226Z,11.79
2022-11-14T12:26:50.746Z,11.89
2022-11-14T12:29:54.264Z,12.01
2022-11-14T12:33:08.093Z,11.89
2022-11-14T12:36:00.008Z,11.88
2022-11-14T12:38:52.588Z,11.63
2022-11-14T12:41:40.172Z,11.77
2022-11-14T12:44:28.601Z,11.82
2022-11-14T12:47:20.175Z,11.85
2022-11-14T12:50:39.605Z,12.15
2022-11-14T12:53:31.121Z,12.57
2022-11-14T12:56:28.986Z,12.96
2022-11-14T12:59:30.257Z,13.32
2022-11-14T13:02:52.724Z,13.24
2022-11-14T13:06:03.796Z,12.83
2022-11-14T13:09:26.700Z,13.98
2022-11-14T13:12:32.648Z,14.59
2022-11-14T13:15:20.875Z,14.74
2022-11-14T13:18:15.376Z,14.94
2022-11-14T13:21:03.101Z,15.27
2022-11-14T13:23:48.032Z,14.21
2022-11-14T13:26:42.786Z,14.13
2022-11-14T13:29:40.633Z,14.20
2022-11-14T13:32:43.850Z,14.69
2022-11-14T13:35:40.813Z,14.43
2022-11-14T13:38:32.423Z,14.36
2022-11-14T13:41:48.011Z,15.03
2022-11-14T13:44:51.145Z,12.65
2022-11-14T13:48:05.425Z,12.80
2022-11-14T13:50:55.699Z,12.72
2022-11-14T13:53:41.645Z,12.39
2022-11-14T13:56:44.211Z,12.46
2022-11-14T14:00:00.263Z,13.35
2022-11-14T14:02:51.669Z,13.11
2022-11-14T14:05:51.892Z,12.61
2022-11-14T14:08:52.001Z,12.50
2022-11-14T14:11:42.710Z,12.91
2022-11-14T14:14:49.365Z,13.22
2022-11-14T14:17:46.577Z,12.97
2022-11-14T14:20:38.901Z,13.42
2022-11-14T14:23:43.062Z,13.40
2022-11-14T14:27:07.337Z,13.14
2022-11-14T14:30:07.431Z,13.10
2022-11-14T14:33:04.375Z,12.89
2022-11-14T14:35:51.280Z,12.81
2022-11-14T14:38:36.454Z,13.14
2022-11-14T14:41:22.949Z,13.01
2022-11-14T14:44:27.357Z,13.19
2022-11-14T14:47:38.184Z,13.11
2022-11-14T14:50:54.706Z,12.59
2022-11-14T14:53:51.354Z,13.04
2022-11-14T14:56:36.561Z,12.74
2022-11-14T14:59:24.394Z,12.34
2022-11-14T15:02:18.220Z,12.39
2022-11-14T15:05:09.358Z,11.96
2022-11-14T15:07:58.635Z,11.51
2022-11-14T15:10:44.643Z,11.16
2022-11-14T15:13:31.045Z,10.50
2022-11-14T15:16:16.601Z,10.46
2022-11-14T15:19:02.585Z,10.50
2022-11-14T15:22:06.162Z,10.34
2022-11-14T15:25:18.109Z,10.45
2022-11-14T15:28:03.799Z,10.46
2022-11-14T15:30:58.930Z,10.21
2022-11-14T15:33:44.545Z,10.16
2022-11-14T15:36:36.059Z,10.21
2022-11-14T15:39:26.660Z,10.00
2022-11-14T15:42:14.829Z,10.02
2022-11-14T15:45:00.312Z,10.01
2022-11-14T15:47:46.646Z,9.73
2022-11-14T15:50:35.315Z,9.57
2022-11-14T15:53:22.335Z,9.62
2022-11-14T15:56:11.573Z,9.69
2022-11-14T15:58:56.911Z,9.67
2022-11-14T16:01:44.068Z,9.69
2022-11-14T16:04:34.337Z,9.61
2022-11-14T16:07:19.957Z,9.61
2022-11-14T16:10:18.560Z,9.48
2022-11-14T16:13:03.807Z,9.52
2022-11-14T16:15:48.981Z,9.51
2022-11-14T16:18:34.605Z,9.58
2022-11-14T16:21:19.504Z,9.32
2022-11-14T16:24:06.195Z,9.28
2022-11-14T16:26:51.416Z,9.24
2022-11-14T16:29:36.849Z,9.21
2022-11-14T16:32:22.532Z,8.90
2022-11-14T16:35:13.258Z,9.08
2022-11-14T16:37:58.604Z,9.18
2022-11-14T16:40:44.584Z,9.22
2022-11-14T16:43:29.754Z,9.05
2022-11-14T16:46:15.495Z,9.02
2022-11-14T16:49:00.680Z,9.12
2022-11-14T16:51:49.826Z,9.02
2022-11-14T16:54:35.517Z,9.13
2022-11-14T16:57:21.363Z,9.14
2022-11-14T17:00:09.252Z,9.17
2022-11-14T17:02:54.933Z,9.17
2022-11-14T17:05:51.330Z,9.15
2022-11-14T17:08:36.789Z,8.71
2022-11-14T17:11:22.953Z,8.68
2022-11-14T17:14:08.002Z,8.79
2022-11-14T17:16:52.889Z,8.89
2022-11-14T17:19:37.926Z,8.82
2022-11-14T17:22:23.419Z,8.92
2022-11-14T17:25:08.413Z,8.98
2022-11-14T17:27:53.896Z,8.97
2022-11-14T17:30:42.671Z,8.86
2022-11-14T17:33:28.095Z,8.79
2022-11-14T17:36:13.445Z,8.86
2022-11-14T17:38:58.867Z,8.92
2022-11-14T17:41:44.199Z,8.98
2022-11-14T17:44:29.248Z,9.07
2022-11-14T17:47:14.357Z,9.07
2022-11-14T17:49:59.879Z,9.06
2022-11-14T17:52:45.255Z,9.15
2022-11-14T17:55:30.286Z,9.07
2022-11-14T17:58:15.371Z,9.12
2022-11-14T18:01:00.420Z,9.27
2022-11-14T18:03:45.525Z,9.08
2022-11-14T18:06:30.763Z,9.03
2022-11-14T18:09:16.425Z,8.91
2022-11-14T18:12:01.339Z,8.79
2022-11-14T18:14:46.304Z,8.88
2022-11-14T18:17:31.528Z,8.80
2022-11-14T18:20:16.633Z,8.73
2022-11-14T18:23:01.750Z,8.82
2022-11-14T18:25:46.577Z,8.88
2022-11-14T18:28:32.250Z,9.03
2022-11-14T18:31:18.084Z,9.07
2022-11-14T18:34:03.566Z,9.16
2022-11-14T18:36:48.745Z,9.24
2022-11-14T18:39:33.883Z,9.25
2022-11-14T18:42:19.214Z,9.30
2022-11-14T18:45:04.928Z,9.35
2022-11-14T18:47:51.059Z,9.30
2022-11-14T18:50:36.265Z,9.31
2022-11-14T18:53:36.830Z,9.48
2022-11-14T18:56:23.805Z,9.42
2022-11-14T18:59:09.158Z,9.37
2022-11-14T19:02:07.958Z,9.52
2022-11-14T19:04:53.049Z,9.37
2022-11-14T19:07:38.005Z,9.25
2022-11-14T19:10:45.330Z,9.45
2022-11-14T19:13:29.396Z,9.50
2022-11-14T19:16:14.701Z,9.53
2022-11-14T19:18:59.703Z,9.63
2022-11-14T19:21:48.571Z,9.55
2022-11-14T19:24:33.520Z,9.53
2022-11-14T19:27:18.973Z,9.58
2022-11-14T19:30:04.372Z,9.69
2022-11-14T19:32:50.058Z,9.58
2022-11-14T19:35:38.476Z,9.44
2022-11-14T19:38:24.652Z,9.44
2022-11-14T19:41:10.414Z,9.54
2022-11-14T19:43:56.783Z,9.59
2022-11-14T19:46:46.069Z,9.65
2022-11-14T19:49:32.871Z,9.79
2022-11-14T19:52:18.574Z,9.71
2022-11-14T19:55:04.192Z,9.54
2022-11-14T19:57:49.558Z,9.61
2022-11-14T20:00:34.522Z,9.53
2022-11-14T20:03:19.570Z,9.46
2022-11-14T20:06:12.994Z,9.42
2022-11-14T20:09:01.317Z,9.46
2022-11-14T20:12:27.176Z,9.38
2022-11-14T20:15:12.523Z,9.44
2022-11-14T20:17:57.606Z,9.50
2022-11-14T20:20:42.770Z,9.53
2022-11-14T20:23:28.342Z,9.54
2022-11-14T20:26:14.927Z,9.50
2022-11-14T20:29:00.083Z,9.52
2022-11-14T20:31:45.225Z,9.60
2022-11-14T20:34:30.123Z,9.70
2022-11-14T20:37:18.919Z,9.72
2022-11-14T20:40:04.628Z,9.81
2022-11-14T20:42:49.709Z,9.85
2022-11-14T20:45:35.104Z,9.84
2022-11-14T20:48:20.001Z,9.87
2022-11-14T20:51:07.214Z,9.94
2022-11-14T20:53:53.984Z,9.96
2022-11-14T20:56:38.831Z,9.97
2022-11-14T20:59:23.796Z,9.94
2022-11-14T21:02:12.154Z,9.96
2022-11-14T21:04:57.240Z,9.99
2022-11-14T21:07:42.629Z,9.95
2022-11-14T21:10:28.012Z,9.92
2022-11-14T21:13:17.606Z,9.92
2022-11-14T21:16:05.917Z,9.87
2022-11-14T21:18:54.910Z,9.71
2022-11-14T21:21:40.258Z,9.62
2022-11-14T21:24:25.698Z,9.65
2022-11-14T21:27:10.704Z,9.50
2022-11-14T21:29:55.863Z,9.43
2022-11-14T21:32:40.756Z,9.36
2022-11-14T21:35:25.644Z,9.37
2022-11-14T21:38:10.837Z,9.27
2022-11-14T21:40:55.905Z,9.17
2022-11-14T21:43:41.100Z,9.13
2022-11-14T21:46:26.997Z,9.03
2022-11-14T21:49:12.109Z,8.86
2022-11-14T21:51:57.501Z,8.79
2022-11-14T21:54:42.953Z,8.78
2022-11-14T21:57:28.011Z,8.72
2022-11-14T22:00:13.780Z,8.61
2022-11-14T22:02:58.807Z,8.55
2022-11-14T22:05:43.952Z,8.31
2022-11-14T22:08:28.996Z,8.30
2022-11-14T22:11:14.271Z,8.35
2022-11-14T22:14:00.000Z,8.25
2022-11-14T22:16:44.956Z,8.26
2022-11-14T22:19:29.926Z,8.25
2022-11-14T22:22:14.802Z,8.29
2022-11-14T22:24:59.876Z,8.31
2022-11-14T22:27:45.376Z,8.24
2022-11-14T22:30:30.866Z,8.19
2022-11-14T22:33:15.856Z,8.19
2022-11-14T22:36:17.381Z,8.24
2022-11-14T22:39:02.996Z,8.33
2022-11-14T22:41:48.055Z,8.41
2022-11-14T22:44:33.407Z,8.48
2022-11-14T22:47:18.465Z,8.47
2022-11-14T22:50:04.184Z,8.47
2022-11-14T22:52:49.250Z,8.41
2022-11-14T22:55:34.211Z,8.42
2022-11-14T22:58:19.195Z,8.34
2022-11-14T23:01:14.778Z,8.33
2022-11-14T23:04:02.145Z,8.36
2022-11-14T23:06:47.304Z,8.41
2022-11-14T23:09:32.871Z,8.35
2022-11-14T23:12:18.145Z,8.47
2022-11-14T23:15:03.802Z,8.46
2022-11-14T23:17:48.977Z,8.47
2022-11-14T23:20:35.388Z,8.44
2022-11-14T23:23:20.379Z,8.47
2022-11-14T23:26:19.012Z,8.47
2022-11-14T23:29:04.533Z,8.52
2022-11-14T23:31:49.502Z,8.53
2022-11-14T23:34:34.350Z,8.57
2022-11-14T23:37:19.543Z,8.60
2022-11-14T23:40:04.855Z,8.60
2022-11-14T23:42:49.708Z,8.63
2022-11-14T23:45:35.185Z,8.62
2022-11-14T23:48:21.432Z,8.66
2022-11-14T23:51:06.872Z,8.88
2022-11-14T23:53:51.925Z,8.88
2022-11-14T23:56:36.926Z,8.90
2022-11-14T23:59:21.785Z,8.91
